sensor_id;sensor_type;location;lat;lon;timestamp;pressure;altitude;pressure_sealevel;temperature;humidity
65376;BME280;51976;47.332;9.404;2024-03-02T00:00:15;91567.94;;;4.90;100.00
65376;BME280;51976;47.332;9.404;2024-03-02T00:02:44;91577.50;;;4.96;100.00
65376;BME280;51976;47.332;9.404;2024-03-02T00:05:12;91538.38;;;4.81;100.00
65376;BME280;51976;47.332;9.404;2024-03-02T00:07:41;91528.09;;;4.64;100.00
65376;BME280;51976;47.332;9.404;2024-03-02T00:10:09;91603.03;;;5.12;100.00
65376;BME280;51976;47.332;9.404;2024-03-02T00:12:39;91571.47;;;4.80;100.00
65376;BME280;51976;47.332;9.404;2024-03-02T00:15:40;91626.47;;;5.20;100.00
65376;BME280;51976;47.332;9.404;2024-03-02T00:18:13;91547.28;;;4.66;100.00
65376;BME280;51976;47.332;9.404;2024-03-02T00:20:40;91521.22;;;4.53;100.00
65376;BME280;51976;47.332;9.404;2024-03-02T00:23:07;91593.53;;;4.96;100.00
65376;BME280;51976;47.332;9.404;2024-03-02T00:25:40;91605.81;;;4.97;100.00
65376;BME280;51976;47.332;9.404;2024-03-02T00:28:21;91580.06;;;4.72;100.00
65376;BME280;51976;47.332;9.404;2024-03-02T00:31:05;91635.94;;;5.02;100.00
65376;BME280;51976;47.332;9.404;2024-03-02T00:33:35;91641.00;;;5.04;100.00
65376;BME280;51976;47.332;9.404;2024-03-02T00:36:03;91582.75;;;4.72;100.00
65376;BME280;51976;47.332;9.404;2024-03-02T00:38:29;91631.91;;;5.05;100.00
65376;BME280;51976;47.332;9.404;2024-03-02T00:40:56;91636.50;;;4.99;100.00
65376;BME280;51976;47.332;9.404;2024-03-02T00:43:44;91638.69;;;4.92;100.00
65376;BME280;51976;47.332;9.404;2024-03-02T00:46:19;91637.31;;;4.95;100.00
65376;BME280;51976;47.332;9.404;2024-03-02T00:48:53;91638.19;;;4.90;100.00
65376;BME280;51976;47.332;9.404;2024-03-02T00:51:20;91636.50;;;4.99;100.00
65376;BME280;51976;47.332;9.404;2024-03-02T00:53:45;91642.63;;;5.00;100.00
65376;BME280;51976;47.332;9.404;2024-03-02T00:56:11;91595.41;;;4.56;100.00
65376;BME280;51976;47.332;9.404;2024-03-02T00:58:37;91561.66;;;4.31;100.00
65376;BME280;51976;47.332;9.404;2024-03-02T01:01:03;91646.28;;;4.70;100.00
65376;BME280;51976;47.332;9.404;2024-03-02T01:03:28;91607.94;;;4.56;100.00
65376;BME280;51976;47.332;9.404;2024-03-02T01:05:54;91603.75;;;4.39;100.00
65376;BME280;51976;47.332;9.404;2024-03-02T01:08:19;91618.13;;;4.49;100.00
65376;BME280;51976;47.332;9.404;2024-03-02T01:10:44;91542.88;;;4.02;100.00
65376;BME280;51976;47.332;9.404;2024-03-02T01:13:10;91574.75;;;4.23;100.00
65376;BME280;51976;47.332;9.404;2024-03-02T01:15:35;91595.97;;;4.48;100.00
65376;BME280;51976;47.332;9.404;2024-03-02T01:18:01;91646.25;;;4.75;100.00
65376;BME280;51976;47.332;9.404;2024-03-02T01:20:26;91578.47;;;4.32;100.00
65376;BME280;51976;47.332;9.404;2024-03-02T01:22:52;91644.66;;;4.74;100.00
65376;BME280;51976;47.332;9.404;2024-03-02T01:25:18;91652.44;;;4.70;100.00
65376;BME280;51976;47.332;9.404;2024-03-02T01:27:43;91645.19;;;4.76;100.00
65376;BME280;51976;47.332;9.404;2024-03-02T01:30:09;91601.31;;;4.43;100.00
65376;BME280;51976;47.332;9.404;2024-03-02T01:32:37;91652.44;;;4.70;100.00
65376;BME280;51976;47.332;9.404;2024-03-02T01:35:04;91609.03;;;4.50;100.00
65376;BME280;51976;47.332;9.404;2024-03-02T01:37:29;91645.47;;;4.74;100.00
65376;BME280;51976;47.332;9.404;2024-03-02T01:39:55;91649.16;;;4.84;100.00
65376;BME280;51976;47.332;9.404;2024-03-02T01:42:20;91650.75;;;4.85;100.00
65376;BME280;51976;47.332;9.404;2024-03-02T01:44:46;91657.97;;;4.84;100.00
65376;BME280;51976;47.332;9.404;2024-03-02T01:47:11;91652.09;;;4.82;100.00
65376;BME280;51976;47.332;9.404;2024-03-02T01:49:37;91639.56;;;4.78;100.00
65376;BME280;51976;47.332;9.404;2024-03-02T01:52:04;91649.97;;;4.84;100.00
65376;BME280;51976;47.332;9.404;2024-03-02T01:54:29;91626.00;;;4.69;100.00
65376;BME280;51976;47.332;9.404;2024-03-02T01:56:55;91629.56;;;4.54;100.00
65376;BME280;51976;47.332;9.404;2024-03-02T01:59:20;91573.66;;;3.64;100.00
65376;BME280;51976;47.332;9.404;2024-03-02T02:01:45;91669.16;;;4.32;100.00
65376;BME280;51976;47.332;9.404;2024-03-02T02:04:11;91625.81;;;3.91;100.00
65376;BME280;51976;47.332;9.404;2024-03-02T02:06:36;91669.16;;;4.37;100.00
65376;BME280;51976;47.332;9.404;2024-03-02T02:09:02;91664.56;;;4.48;100.00
65376;BME280;51976;47.332;9.404;2024-03-02T02:11:28;91643.75;;;4.45;100.00
65376;BME280;51976;47.332;9.404;2024-03-02T02:13:53;91613.97;;;4.27;100.00
65376;BME280;51976;47.332;9.404;2024-03-02T02:16:20;91552.22;;;3.95;100.00
65376;BME280;51976;47.332;9.404;2024-03-02T02:18:46;91651.69;;;4.60;100.00
65376;BME280;51976;47.332;9.404;2024-03-02T02:21:12;91669.75;;;4.73;100.00
65376;BME280;51976;47.332;9.404;2024-03-02T02:23:37;91653.31;;;4.56;100.00
65376;BME280;51976;47.332;9.404;2024-03-02T02:26:03;91620.91;;;4.23;100.00
65376;BME280;51976;47.332;9.404;2024-03-02T02:28:29;91658.72;;;4.40;100.00
65376;BME280;51976;47.332;9.404;2024-03-02T02:30:54;91573.00;;;3.98;100.00
65376;BME280;51976;47.332;9.404;2024-03-02T02:33:21;91657.38;;;4.43;100.00
65376;BME280;51976;47.332;9.404;2024-03-02T02:35:47;91550.19;;;3.71;100.00
65376;BME280;51976;47.332;9.404;2024-03-02T02:38:12;91660.88;;;4.33;100.00
65376;BME280;51976;47.332;9.404;2024-03-02T02:40:38;91618.28;;;4.13;100.00
65376;BME280;51976;47.332;9.404;2024-03-02T02:43:03;91656.03;;;4.46;100.00
65376;BME280;51976;47.332;9.404;2024-03-02T02:45:28;91657.72;;;4.26;100.00
65376;BME280;51976;47.332;9.404;2024-03-02T02:47:54;91656.41;;;4.19;100.00
65376;BME280;51976;47.332;9.404;2024-03-02T02:50:20;91567.84;;;3.47;100.00
65376;BME280;51976;47.332;9.404;2024-03-02T02:52:45;91663.13;;;3.96;100.00
65376;BME280;51976;47.332;9.404;2024-03-02T02:55:12;91664.44;;;4.08;100.00
65376;BME280;51976;47.332;9.404;2024-03-02T02:57:39;91639.66;;;3.98;100.00
65376;BME280;51976;47.332;9.404;2024-03-02T03:00:10;91652.91;;;4.28;100.00
65376;BME280;51976;47.332;9.404;2024-03-02T03:02:39;91603.88;;;4.14;100.00
65376;BME280;51976;47.332;9.404;2024-03-02T03:05:07;91637.31;;;4.51;100.00
65376;BME280;51976;47.332;9.404;2024-03-02T03:07:33;91518.22;;;3.66;100.00
65376;BME280;51976;47.332;9.404;2024-03-02T03:10:00;91539.81;;;3.65;100.00
65376;BME280;51976;47.332;9.404;2024-03-02T03:12:26;91661.34;;;4.46;100.00
65376;BME280;51976;47.332;9.404;2024-03-02T03:14:51;91667.72;;;4.55;100.00
65376;BME280;51976;47.332;9.404;2024-03-02T03:17:17;91574.59;;;4.04;100.00
65376;BME280;51976;47.332;9.404;2024-03-02T03:19:43;91659.50;;;4.41;100.00
65376;BME280;51976;47.332;9.404;2024-03-02T03:22:09;91657.63;;;4.47;100.00
65376;BME280;51976;47.332;9.404;2024-03-02T03:24:34;91569.03;;;3.95;100.00
65376;BME280;51976;47.332;9.404;2024-03-02T03:27:00;91628.34;;;4.36;100.00
65376;BME280;51976;47.332;9.404;2024-03-02T03:29:25;91571.13;;;4.03;100.00
65376;BME280;51976;47.332;9.404;2024-03-02T03:31:50;91672.50;;;4.63;100.00
65376;BME280;51976;47.332;9.404;2024-03-02T03:34:16;91623.00;;;4.36;100.00
65376;BME280;51976;47.332;9.404;2024-03-02T03:36:42;91645.84;;;4.58;100.00
65376;BME280;51976;47.332;9.404;2024-03-02T03:39:08;91666.78;;;4.85;100.00
65376;BME280;51976;47.332;9.404;2024-03-02T03:41:34;91601.41;;;4.33;100.00
65376;BME280;51976;47.332;9.404;2024-03-02T03:43:59;91658.09;;;4.64;100.00
65376;BME280;51976;47.332;9.404;2024-03-02T03:46:25;91604.41;;;4.11;100.00
65376;BME280;51976;47.332;9.404;2024-03-02T03:48:50;91669.38;;;4.46;100.00
65376;BME280;51976;47.332;9.404;2024-03-02T03:51:15;91635.91;;;4.04;100.00
65376;BME280;51976;47.332;9.404;2024-03-02T03:53:41;91626.94;;;3.80;100.00
65376;BME280;51976;47.332;9.404;2024-03-02T03:56:06;91651.41;;;4.02;100.00
65376;BME280;51976;47.332;9.404;2024-03-02T03:58:32;91677.44;;;4.30;100.00
65376;BME280;51976;47.332;9.404;2024-03-02T04:00:57;91676.84;;;4.43;100.00
65376;BME280;51976;47.332;9.404;2024-03-02T04:03:22;91622.84;;;4.02;100.00
65376;BME280;51976;47.332;9.404;2024-03-02T04:05:48;91607.75;;;3.72;100.00
65376;BME280;51976;47.332;9.404;2024-03-02T04:08:13;91670.50;;;4.34;100.00
65376;BME280;51976;47.332;9.404;2024-03-02T04:10:38;91676.84;;;4.43;100.00
65376;BME280;51976;47.332;9.404;2024-03-02T04:13:05;91673.34;;;4.48;100.00
65376;BME280;51976;47.332;9.404;2024-03-02T04:15:31;91675.47;;;4.51;100.00
65376;BME280;51976;47.332;9.404;2024-03-02T04:17:56;91602.53;;;4.12;100.00
65376;BME280;51976;47.332;9.404;2024-03-02T04:20:22;91627.16;;;3.88;100.00
65376;BME280;51976;47.332;9.404;2024-03-02T04:22:47;91640.75;;;3.87;100.00
65376;BME280;51976;47.332;9.404;2024-03-02T04:25:13;91602.41;;;3.72;100.00
65376;BME280;51976;47.332;9.404;2024-03-02T04:27:38;91657.44;;;4.28;100.00
65376;BME280;51976;47.332;9.404;2024-03-02T04:30:04;91653.41;;;4.35;100.00
65376;BME280;51976;47.332;9.404;2024-03-02T04:32:30;91586.34;;;3.98;100.00
65376;BME280;51976;47.332;9.404;2024-03-02T04:34:56;91670.25;;;4.31;100.00
65376;BME280;51976;47.332;9.404;2024-03-02T04:37:22;91675.31;;;4.22;100.00
65376;BME280;51976;47.332;9.404;2024-03-02T04:39:47;91570.69;;;3.76;100.00
65376;BME280;51976;47.332;9.404;2024-03-02T04:42:12;91661.88;;;4.48;100.00
65376;BME280;51976;47.332;9.404;2024-03-02T04:44:38;91623.56;;;4.28;100.00
65376;BME280;51976;47.332;9.404;2024-03-02T04:47:04;91664.81;;;4.51;100.00
65376;BME280;51976;47.332;9.404;2024-03-02T04:49:29;91658.66;;;4.51;100.00
65376;BME280;51976;47.332;9.404;2024-03-02T04:51:55;91661.06;;;4.52;100.00
65376;BME280;51976;47.332;9.404;2024-03-02T04:54:22;91660.53;;;4.55;100.00
65376;BME280;51976;47.332;9.404;2024-03-02T04:56:47;91651.22;;;4.48;100.00
65376;BME280;51976;47.332;9.404;2024-03-02T04:59:19;91602.84;;;4.05;100.00
65376;BME280;51976;47.332;9.404;2024-03-02T05:01:44;91657.88;;;4.45;100.00
65376;BME280;51976;47.332;9.404;2024-03-02T05:04:10;91661.88;;;4.53;100.00
65376;BME280;51976;47.332;9.404;2024-03-02T05:06:37;91662.16;;;4.41;100.00
65376;BME280;51976;47.332;9.404;2024-03-02T05:09:04;91635.03;;;4.29;100.00
65376;BME280;51976;47.332;9.404;2024-03-02T05:11:29;91655.50;;;4.38;100.00
65376;BME280;51976;47.332;9.404;2024-03-02T05:14:15;91655.03;;;4.31;100.00
65376;BME280;51976;47.332;9.404;2024-03-02T05:16:40;91583.16;;;3.91;100.00
65376;BME280;51976;47.332;9.404;2024-03-02T05:19:07;91627.13;;;4.08;100.00
65376;BME280;51976;47.332;9.404;2024-03-02T05:21:35;91654.78;;;4.23;100.00
65376;BME280;51976;47.332;9.404;2024-03-02T05:24:00;91573.91;;;3.73;100.00
65376;BME280;51976;47.332;9.404;2024-03-02T05:26:26;91574.41;;;3.80;100.00
65376;BME280;51976;47.332;9.404;2024-03-02T05:28:52;91544.34;;;3.59;100.00
65376;BME280;51976;47.332;9.404;2024-03-02T05:31:17;91649.19;;;4.19;100.00
65376;BME280;51976;47.332;9.404;2024-03-02T05:33:43;91650.78;;;4.20;100.00
65376;BME280;51976;47.332;9.404;2024-03-02T05:36:09;91631.38;;;4.10;100.00
65376;BME280;51976;47.332;9.404;2024-03-02T05:38:34;91660.38;;;4.31;100.00
65376;BME280;51976;47.332;9.404;2024-03-02T05:41:00;91585.81;;;3.91;100.00
65376;BME280;51976;47.332;9.404;2024-03-02T05:43:25;91615.38;;;4.04;100.00
65376;BME280;51976;47.332;9.404;2024-03-02T05:45:51;91661.44;;;4.30;100.00
65376;BME280;51976;47.332;9.404;2024-03-02T05:48:16;91663.66;;;4.08;100.00
65376;BME280;51976;47.332;9.404;2024-03-02T05:50:41;91609.84;;;3.86;100.00
65376;BME280;51976;47.332;9.404;2024-03-02T05:53:07;91670.00;;;4.17;100.00
65376;BME280;51976;47.332;9.404;2024-03-02T05:55:32;91672.69;;;4.12;100.00
65376;BME280;51976;47.332;9.404;2024-03-02T05:57:58;91662.53;;;4.19;100.00
65376;BME280;51976;47.332;9.404;2024-03-02T06:00:42;91642.53;;;4.12;100.00
65376;BME280;51976;47.332;9.404;2024-03-02T06:03:08;91663.31;;;4.25;100.00
65376;BME280;51976;47.332;9.404;2024-03-02T06:05:34;91623.69;;;3.88;100.00
65376;BME280;51976;47.332;9.404;2024-03-02T06:08:00;91667.34;;;4.17;100.00
65376;BME280;51976;47.332;9.404;2024-03-02T06:10:25;91622.63;;;3.89;100.00
65376;BME280;51976;47.332;9.404;2024-03-02T06:12:51;91648.53;;;3.68;100.00
65376;BME280;51976;47.332;9.404;2024-03-02T06:15:16;91676.75;;;3.89;100.00
65376;BME280;51976;47.332;9.404;2024-03-02T06:17:42;91650.13;;;3.59;100.00
65376;BME280;51976;47.332;9.404;2024-03-02T06:20:08;91637.13;;;3.22;100.00
65376;BME280;51976;47.332;9.404;2024-03-02T06:22:34;91636.59;;;3.45;100.00
65376;BME280;51976;47.332;9.404;2024-03-02T06:25:00;91687.13;;;3.91;100.00
65376;BME280;51976;47.332;9.404;2024-03-02T06:27:25;91614.16;;;3.56;100.00
65376;BME280;51976;47.332;9.404;2024-03-02T06:29:51;91538.06;;;3.10;100.00
65376;BME280;51976;47.332;9.404;2024-03-02T06:32:16;91648.78;;;3.82;100.00
65376;BME280;51976;47.332;9.404;2024-03-02T06:34:42;91607.22;;;3.65;100.00
65376;BME280;51976;47.332;9.404;2024-03-02T06:37:07;91662.59;;;3.94;100.00
65376;BME280;51976;47.332;9.404;2024-03-02T06:39:33;91688.44;;;4.08;100.00
65376;BME280;51976;47.332;9.404;2024-03-02T06:42:00;91687.91;;;4.06;100.00
65376;BME280;51976;47.332;9.404;2024-03-02T06:44:25;91691.34;;;4.17;100.00
65376;BME280;51976;47.332;9.404;2024-03-02T06:46:51;91659.94;;;4.04;100.00
65376;BME280;51976;47.332;9.404;2024-03-02T06:49:16;91660.53;;;3.76;100.00
65376;BME280;51976;47.332;9.404;2024-03-02T06:51:44;91649.28;;;3.89;100.00
65376;BME280;51976;47.332;9.404;2024-03-02T06:54:09;91584.84;;;3.61;100.00
65376;BME280;51976;47.332;9.404;2024-03-02T06:56:34;91556.94;;;3.33;100.00
65376;BME280;51976;47.332;9.404;2024-03-02T06:59:00;91600.03;;;3.66;100.00
65376;BME280;51976;47.332;9.404;2024-03-02T07:01:25;91605.63;;;3.74;100.00
65376;BME280;51976;47.332;9.404;2024-03-02T07:03:51;91559.34;;;3.35;100.00
65376;BME280;51976;47.332;9.404;2024-03-02T07:06:17;91622.97;;;3.62;100.00
65376;BME280;51976;47.332;9.404;2024-03-02T07:08:42;91662.31;;;4.00;100.00
65376;BME280;51976;47.332;9.404;2024-03-02T07:11:08;91570.22;;;3.54;100.00
65376;BME280;51976;47.332;9.404;2024-03-02T07:13:33;91698.53;;;4.22;100.00
65376;BME280;51976;47.332;9.404;2024-03-02T07:15:59;91696.66;;;4.22;100.00
65376;BME280;51976;47.332;9.404;2024-03-02T07:18:45;91701.19;;;4.32;100.00
65376;BME280;51976;47.332;9.404;2024-03-02T07:21:16;91618.41;;;3.83;100.00
65376;BME280;51976;47.332;9.404;2024-03-02T07:23:41;91707.81;;;4.39;100.00
65376;BME280;51976;47.332;9.404;2024-03-02T07:26:07;91680.13;;;4.25;100.00
65376;BME280;51976;47.332;9.404;2024-03-02T07:28:32;91697.09;;;4.55;100.00
65376;BME280;51976;47.332;9.404;2024-03-02T07:31:02;91699.47;;;4.56;100.00
65376;BME280;51976;47.332;9.404;2024-03-02T07:33:30;91677.69;;;4.34;100.00
65376;BME280;51976;47.332;9.404;2024-03-02T07:35:56;91699.72;;;4.65;100.00
65376;BME280;51976;47.332;9.404;2024-03-02T07:38:22;91630.22;;;4.26;100.00
65376;BME280;51976;47.332;9.404;2024-03-02T07:40:48;91634.69;;;4.40;100.00
65376;BME280;51976;47.332;9.404;2024-03-02T07:43:17;91695.88;;;4.86;100.00
65376;BME280;51976;47.332;9.404;2024-03-02T07:45:43;91686.28;;;4.80;100.00
65376;BME280;51976;47.332;9.404;2024-03-02T07:48:09;91691.00;;;4.93;100.00
65376;BME280;51976;47.332;9.404;2024-03-02T07:50:34;91571.66;;;4.05;100.00
65376;BME280;51976;47.332;9.404;2024-03-02T07:53:03;91687.53;;;4.93;100.00
65376;BME280;51976;47.332;9.404;2024-03-02T07:55:32;91683.00;;;4.93;100.00
65376;BME280;51976;47.332;9.404;2024-03-02T07:57:58;91649.75;;;4.70;100.00
65376;BME280;51976;47.332;9.404;2024-03-02T08:00:24;91619.81;;;4.34;100.00
65376;BME280;51976;47.332;9.404;2024-03-02T08:02:51;91662.91;;;4.57;100.00
65376;BME280;51976;47.332;9.404;2024-03-02T08:05:17;91593.16;;;4.29;100.00
65376;BME280;51976;47.332;9.404;2024-03-02T08:07:44;91629.47;;;4.69;100.00
65376;BME280;51976;47.332;9.404;2024-03-02T08:10:10;91657.41;;;4.92;100.00
65376;BME280;51976;47.332;9.404;2024-03-02T08:12:36;91654.91;;;5.01;100.00
65376;BME280;51976;47.332;9.404;2024-03-02T08:15:01;91669.81;;;5.12;100.00
65376;BME280;51976;47.332;9.404;2024-03-02T08:17:27;91631.06;;;5.15;100.00
65376;BME280;51976;47.332;9.404;2024-03-02T08:19:53;91671.66;;;5.79;100.00
65376;BME280;51976;47.332;9.404;2024-03-02T08:22:19;91630.69;;;5.60;100.00
65376;BME280;51976;47.332;9.404;2024-03-02T08:24:44;91617.00;;;5.67;100.00
65376;BME280;51976;47.332;9.404;2024-03-02T08:27:10;91650.72;;;5.92;100.00
65376;BME280;51976;47.332;9.404;2024-03-02T08:29:36;91598.56;;;5.36;100.00
65376;BME280;51976;47.332;9.404;2024-03-02T08:32:01;91605.94;;;5.16;100.00
65376;BME280;51976;47.332;9.404;2024-03-02T08:34:26;91637.63;;;5.61;100.00
65376;BME280;51976;47.332;9.404;2024-03-02T08:36:52;91662.81;;;6.13;100.00
65376;BME280;51976;47.332;9.404;2024-03-02T08:39:17;91541.31;;;5.42;100.00
65376;BME280;51976;47.332;9.404;2024-03-02T08:41:45;91647.84;;;6.12;100.00
65376;BME280;51976;47.332;9.404;2024-03-02T08:44:11;91651.25;;;6.41;100.00
65376;BME280;51976;47.332;9.404;2024-03-02T08:46:37;91616.75;;;6.16;100.00
65376;BME280;51976;47.332;9.404;2024-03-02T08:49:04;91614.34;;;6.38;100.00
65376;BME280;51976;47.332;9.404;2024-03-02T08:51:29;91637.06;;;6.65;100.00
65376;BME280;51976;47.332;9.404;2024-03-02T08:53:54;91593.69;;;6.63;100.00
65376;BME280;51976;47.332;9.404;2024-03-02T08:56:20;91568.50;;;6.64;100.00
65376;BME280;51976;47.332;9.404;2024-03-02T08:58:47;91585.53;;;6.92;100.00
65376;BME280;51976;47.332;9.404;2024-03-02T09:01:12;91576.97;;;6.90;100.00
65376;BME280;51976;47.332;9.404;2024-03-02T09:03:38;91544.56;;;6.72;100.00
65376;BME280;51976;47.332;9.404;2024-03-02T09:06:03;91588.78;;;7.40;100.00
65376;BME280;51976;47.332;9.404;2024-03-02T09:08:29;91589.22;;;7.47;100.00
65376;BME280;51976;47.332;9.404;2024-03-02T09:10:55;91514.63;;;7.03;100.00
65376;BME280;51976;47.332;9.404;2024-03-02T09:13:21;91522.03;;;7.25;100.00
65376;BME280;51976;47.332;9.404;2024-03-02T09:15:47;91583.41;;;7.59;100.00
65376;BME280;51976;47.332;9.404;2024-03-02T09:18:13;91579.03;;;7.63;100.00
65376;BME280;51976;47.332;9.404;2024-03-02T09:20:38;91495.31;;;7.20;100.00
65376;BME280;51976;47.332;9.404;2024-03-02T09:23:04;91476.09;;;7.31;100.00
65376;BME280;51976;47.332;9.404;2024-03-02T09:25:29;91571.34;;;8.02;100.00
65376;BME280;51976;47.332;9.404;2024-03-02T09:27:56;91516.06;;;7.74;100.00
65376;BME280;51976;47.332;9.404;2024-03-02T09:30:21;91559.41;;;8.08;100.00
65376;BME280;51976;47.332;9.404;2024-03-02T09:32:47;91552.88;;;8.42;100.00
65376;BME280;51976;47.332;9.404;2024-03-02T09:35:12;91541.28;;;8.69;100.00
65376;BME280;51976;47.332;9.404;2024-03-02T09:37:37;91530.09;;;8.89;100.00
65376;BME280;51976;47.332;9.404;2024-03-02T09:40:03;91511.88;;;9.08;100.00
65376;BME280;51976;47.332;9.404;2024-03-02T09:42:29;91519.22;;;9.16;100.00
65376;BME280;51976;47.332;9.404;2024-03-02T09:44:55;91471.94;;;9.15;100.00
65376;BME280;51976;47.332;9.404;2024-03-02T09:47:22;91509.56;;;9.38;100.00
65376;BME280;51976;47.332;9.404;2024-03-02T09:49:47;91505.41;;;9.32;100.00
65376;BME280;51976;47.332;9.404;2024-03-02T09:52:13;91497.84;;;9.11;100.00
65376;BME280;51976;47.332;9.404;2024-03-02T09:54:40;91481.84;;;9.06;100.00
65376;BME280;51976;47.332;9.404;2024-03-02T09:57:05;91489.66;;;9.16;100.00
65376;BME280;51976;47.332;9.404;2024-03-02T09:59:33;91484.16;;;8.99;100.00
65376;BME280;51976;47.332;9.404;2024-03-02T10:02:01;91474.38;;;9.03;100.00
65376;BME280;51976;47.332;9.404;2024-03-02T10:04:30;91475.97;;;9.04;100.00
65376;BME280;51976;47.332;9.404;2024-03-02T10:07:18;91438.34;;;8.82;100.00
65376;BME280;51976;47.332;9.404;2024-03-02T10:09:46;91462.72;;;9.08;100.00
65376;BME280;51976;47.332;9.404;2024-03-02T10:12:13;91461.38;;;9.19;100.00
65376;BME280;51976;47.332;9.404;2024-03-02T10:14:40;91413.44;;;8.90;100.00
65376;BME280;51976;47.332;9.404;2024-03-02T10:17:07;91450.63;;;9.19;100.00
65376;BME280;51976;47.332;9.404;2024-03-02T10:19:33;91429.81;;;9.33;100.00
65376;BME280;51976;47.332;9.404;2024-03-02T10:22:00;91415.25;;;9.34;100.00
65376;BME280;51976;47.332;9.404;2024-03-02T10:24:27;91424.34;;;9.47;100.00
65376;BME280;51976;47.332;9.404;2024-03-02T10:26:53;91429.59;;;9.52;100.00
65376;BME280;51976;47.332;9.404;2024-03-02T10:29:19;91410.34;;;9.67;100.00
65376;BME280;51976;47.332;9.404;2024-03-02T10:31:46;91427.84;;;9.96;100.00
65376;BME280;51976;47.332;9.404;2024-03-02T10:34:13;91421.94;;;9.76;100.00
65376;BME280;51976;47.332;9.404;2024-03-02T10:36:43;91417.66;;;9.75;100.00
65376;BME280;51976;47.332;9.404;2024-03-02T10:39:09;91412.53;;;9.65;100.00
65376;BME280;51976;47.332;9.404;2024-03-02T10:41:36;91407.97;;;9.66;100.00
65376;BME280;51976;47.332;9.404;2024-03-02T10:44:06;91369.75;;;9.46;100.00
65376;BME280;51976;47.332;9.404;2024-03-02T10:46:33;91401.78;;;9.65;100.00
65376;BME280;51976;47.332;9.404;2024-03-02T10:49:00;91372.81;;;9.62;100.00
65376;BME280;51976;47.332;9.404;2024-03-02T10:51:28;91359.34;;;9.62;100.00
65376;BME280;51976;47.332;9.404;2024-03-02T10:53:57;91340.34;;;9.59;100.00
65376;BME280;51976;47.332;9.404;2024-03-02T10:56:33;91356.34;;;9.55;100.00
65376;BME280;51976;47.332;9.404;2024-03-02T10:59:28;91375.22;;;9.72;100.00
65376;BME280;51976;47.332;9.404;2024-03-02T11:01:58;91327.38;;;9.52;100.00
65376;BME280;51976;47.332;9.404;2024-03-02T11:04:26;91344.78;;;9.63;100.00
65376;BME280;51976;47.332;9.404;2024-03-02T11:07:08;91318.50;;;9.60;100.00
65376;BME280;51976;47.332;9.404;2024-03-02T11:09:41;91251.03;;;9.31;100.00
65376;BME280;51976;47.332;9.404;2024-03-02T11:12:17;91347.94;;;10.22;100.00
65376;BME280;51976;47.332;9.404;2024-03-02T11:14:47;91327.63;;;10.16;100.00
65376;BME280;51976;47.332;9.404;2024-03-02T11:17:14;91357.59;;;10.23;100.00
65376;BME280;51976;47.332;9.404;2024-03-02T11:19:44;91355.69;;;10.67;100.00
65376;BME280;51976;47.332;9.404;2024-03-02T11:22:10;91301.22;;;10.27;100.00
65376;BME280;51976;47.332;9.404;2024-03-02T11:24:37;91330.50;;;10.54;100.00
65376;BME280;51976;47.332;9.404;2024-03-02T11:27:04;91344.75;;;10.80;100.00
65376;BME280;51976;47.332;9.404;2024-03-02T11:29:46;91277.91;;;10.22;100.00
65376;BME280;51976;47.332;9.404;2024-03-02T11:32:21;91206.34;;;9.69;100.00
65376;BME280;51976;47.332;9.404;2024-03-02T11:34:50;91315.44;;;10.62;100.00
65376;BME280;51976;47.332;9.404;2024-03-02T11:37:22;91220.22;;;10.40;100.00
65376;BME280;51976;47.332;9.404;2024-03-02T11:39:51;91265.50;;;11.19;100.00
65376;BME280;51976;47.332;9.404;2024-03-02T11:42:22;91309.97;;;11.81;100.00
65376;BME280;51976;47.332;9.404;2024-03-02T11:44:53;91243.31;;;11.43;100.00
65376;BME280;51976;47.332;9.404;2024-03-02T11:47:31;91249.84;;;11.04;100.00
65376;BME280;51976;47.332;9.404;2024-03-02T11:49:58;91218.00;;;11.27;100.00
65376;BME280;51976;47.332;9.404;2024-03-02T11:52:25;91236.13;;;11.77;100.00
65376;BME280;51976;47.332;9.404;2024-03-02T11:54:55;91253.78;;;11.74;100.00
65376;BME280;51976;47.332;9.404;2024-03-02T11:57:22;91282.22;;;12.01;100.00
65376;BME280;51976;47.332;9.404;2024-03-02T11:59:48;91301.91;;;12.43;100.00
65376;BME280;51976;47.332;9.404;2024-03-02T12:02:18;91222.84;;;11.93;100.00
65376;BME280;51976;47.332;9.404;2024-03-02T12:04:45;91295.19;;;12.29;100.00
65376;BME280;51976;47.332;9.404;2024-03-02T12:07:22;91277.19;;;11.62;100.00
65376;BME280;51976;47.332;9.404;2024-03-02T12:09:49;91240.84;;;11.30;100.00
65376;BME280;51976;47.332;9.404;2024-03-02T12:12:17;91301.56;;;11.74;100.00
65376;BME280;51976;47.332;9.404;2024-03-02T12:14:52;91239.84;;;11.43;100.00
65376;BME280;51976;47.332;9.404;2024-03-02T12:17:21;91279.25;;;11.56;100.00
65376;BME280;51976;47.332;9.404;2024-03-02T12:19:49;91244.91;;;11.06;100.00
65376;BME280;51976;47.332;9.404;2024-03-02T12:22:14;91166.94;;;10.55;100.00
65376;BME280;51976;47.332;9.404;2024-03-02T12:24:41;91276.56;;;10.89;100.00
65376;BME280;51976;47.332;9.404;2024-03-02T12:27:11;91247.72;;;11.18;100.00
65376;BME280;51976;47.332;9.404;2024-03-02T12:29:37;91256.50;;;11.45;100.00
65376;BME280;51976;47.332;9.404;2024-03-02T12:32:03;91265.41;;;11.37;100.00
65376;BME280;51976;47.332;9.404;2024-03-02T12:34:30;91203.72;;;10.59;100.00
65376;BME280;51976;47.332;9.404;2024-03-02T12:36:56;91259.97;;;11.07;100.00
65376;BME280;51976;47.332;9.404;2024-03-02T12:39:22;91205.38;;;10.81;100.00
65376;BME280;51976;47.332;9.404;2024-03-02T12:41:49;91238.47;;;11.28;100.00
65376;BME280;51976;47.332;9.404;2024-03-02T12:44:16;91176.06;;;11.59;100.00
65376;BME280;51976;47.332;9.404;2024-03-02T12:46:42;91194.13;;;12.09;100.00
65376;BME280;51976;47.332;9.404;2024-03-02T12:49:10;91242.94;;;12.25;100.00
65376;BME280;51976;47.332;9.404;2024-03-02T12:51:36;91166.19;;;11.63;100.00
65376;BME280;51976;47.332;9.404;2024-03-02T12:54:05;91259.81;;;11.12;100.00
65376;BME280;51976;47.332;9.404;2024-03-02T12:56:31;91201.81;;;10.60;100.00
65376;BME280;51976;47.332;9.404;2024-03-02T12:58:57;91244.22;;;10.80;100.00